createdAt,value
2018-05-06T00:01:01.754Z,89
2018-05-06T00:02:04.495Z,89
2018-05-06T00:03:06.932Z,89
2018-05-06T00:04:09.374Z,89
2018-05-06T00:05:12.124Z,90
2018-05-06T00:06:14.578Z,90
2018-05-06T00:07:17.022Z,90
2018-05-06T00:08:19.472Z,90
2018-05-06T00:09:21.923Z,90
2018-05-06T00:10:25.071Z,91
2018-05-06T00:11:27.500Z,91
2018-05-06T00:12:29.942Z,97
2018-05-06T00:13:32.784Z,95
2018-05-06T00:14:35.230Z,98
2018-05-06T00:15:37.956Z,99
2018-05-06T00:16:40.792Z,98
2018-05-06T00:17:43.527Z,100
2018-05-06T00:18:46.265Z,98
2018-05-06T00:19:48.710Z,98
2018-05-06T00:20:51.157Z,97
2018-05-06T00:21:53.610Z,97
2018-05-06T00:22:56.046Z,97
2018-05-06T00:23:58.511Z,99
2018-05-06T00:25:01.349Z,97
2018-05-06T00:26:03.791Z,98
2018-05-06T00:27:06.251Z,98
2018-05-06T00:28:08.690Z,98
2018-05-06T00:29:11.425Z,98
2018-05-06T00:30:13.875Z,98
2018-05-06T00:31:16.335Z,98
2018-05-06T00:32:18.767Z,98
2018-05-06T00:33:21.213Z,98
2018-05-06T00:34:23.650Z,99
2018-05-06T00:35:26.094Z,99
2018-05-06T00:36:28.930Z,98
2018-05-06T00:37:31.370Z,98
2018-05-06T00:38:33.829Z,100
2018-05-06T00:39:36.283Z,100
2018-05-06T00:40:38.728Z,100
2018-05-06T00:41:41.184Z,100
2018-05-06T00:42:43.609Z,100
2018-05-06T00:43:46.082Z,100
2018-05-06T00:44:49.213Z,100
2018-05-06T00:45:51.661Z,100
2018-05-06T00:46:54.099Z,100
2018-05-06T00:47:57.130Z,100
2018-05-06T00:48:59.565Z,100
2018-05-06T00:50:02.725Z,100
2018-05-06T00:51:05.160Z,100
2018-05-06T00:52:07.606Z,100
2018-05-06T00:53:10.051Z,100
2018-05-06T00:54:12.496Z,100
2018-05-06T00:55:14.944Z,100
2018-05-06T00:56:17.692Z,100
2018-05-06T00:57:20.498Z,100
2018-05-06T00:58:22.943Z,100
2018-05-06T00:59:25.672Z,100
2018-05-06T01:00:28.114Z,100
2018-05-06T01:01:30.562Z,100
2018-05-06T01:02:33.404Z,100
2018-05-06T01:03:36.133Z,100
2018-05-06T01:04:38.588Z,100
2018-05-06T01:05:41.038Z,100
2018-05-06T01:06:43.767Z,100
2018-05-06T01:07:46.221Z,100
2018-05-06T01:08:48.654Z,100
2018-05-06T01:09:51.390Z,100
2018-05-06T01:10:53.916Z,100
2018-05-06T01:11:56.267Z,100
2018-05-06T01:12:58.704Z,100
2018-05-06T01:14:01.455Z,100
2018-05-06T01:15:03.897Z,100
2018-05-06T01:16:06.348Z,100
2018-05-06T01:17:08.819Z,100
2018-05-06T01:18:11.256Z,100
2018-05-06T01:19:13.689Z,100
2018-05-06T01:20:16.143Z,100
2018-05-06T01:21:18.581Z,100
2018-05-06T01:22:21.027Z,100
2018-05-06T01:23:23.482Z,100
2018-05-06T01:24:26.623Z,100
2018-05-06T01:25:29.064Z,100
2018-05-06T01:26:31.515Z,100
2018-05-06T01:27:33.943Z,100
2018-05-06T01:28:36.386Z,100
2018-05-06T01:29:39.102Z,100
2018-05-06T01:30:41.543Z,100
2018-05-06T01:31:43.987Z,100
2018-05-06T01:32:46.436Z,100
2018-05-06T01:33:48.872Z,100
2018-05-06T01:34:51.309Z,100
2018-05-06T01:35:53.750Z,100
2018-05-06T01:36:56.487Z,100
2018-05-06T01:37:58.920Z,100
2018-05-06T01:39:01.370Z,100
2018-05-06T01:40:03.885Z,100
2018-05-06T01:41:06.991Z,100
2018-05-06T01:42:09.437Z,100
2018-05-06T01:43:11.872Z,100
2018-05-06T01:44:14.304Z,100
2018-05-06T01:45:16.747Z,100
2018-05-06T01:46:19.191Z,100
2018-05-06T01:47:21.637Z,100
2018-05-06T01:48:24.084Z,100
2018-05-06T01:49:26.511Z,100
2018-05-06T01:50:28.952Z,100
2018-05-06T01:51:31.390Z,100
2018-05-06T01:52:33.831Z,100
2018-05-06T01:53:36.276Z,100
2018-05-06T01:54:38.718Z,100
2018-05-06T01:55:41.152Z,100
2018-05-06T01:56:43.593Z,100
2018-05-06T01:57:46.037Z,100
2018-05-06T01:58:48.468Z,100
2018-05-06T01:59:50.929Z,100
2018-05-06T02:00:53.970Z,100
2018-05-06T02:01:57.287Z,100
2018-05-06T02:02:59.716Z,100
2018-05-06T02:04:02.177Z,100
2018-05-06T02:05:04.607Z,100
2018-05-06T02:06:07.383Z,100
2018-05-06T02:07:10.104Z,100
2018-05-06T02:08:12.533Z,100
2018-05-06T02:09:14.969Z,100
2018-05-06T02:10:17.401Z,100
2018-05-06T02:11:19.833Z,100
2018-05-06T02:12:22.283Z,100
2018-05-06T02:13:24.997Z,100
2018-05-06T02:14:27.445Z,100
2018-05-06T02:15:29.891Z,100
2018-05-06T02:16:32.328Z,100
2018-05-06T02:17:34.772Z,100
2018-05-06T02:18:37.210Z,100
2018-05-06T02:19:39.655Z,100
2018-05-06T02:20:42.072Z,100
2018-05-06T02:21:44.507Z,100
2018-05-06T02:22:46.952Z,100
2018-05-06T02:23:49.395Z,100
2018-05-06T02:24:51.831Z,100
2018-05-06T02:25:54.262Z,100
2018-05-06T02:26:57.377Z,100
2018-05-06T02:27:59.818Z,100
2018-05-06T02:29:02.263Z,100
2018-05-06T02:30:04.981Z,100
2018-05-06T02:31:07.404Z,100
2018-05-06T02:32:10.136Z,100
2018-05-06T02:33:12.949Z,100
2018-05-06T02:34:15.390Z,100
2018-05-06T02:35:17.824Z,100
2018-05-06T02:36:20.534Z,100
2018-05-06T02:37:23.553Z,100
2018-05-06T02:38:26.569Z,100
2018-05-06T02:39:29.584Z,100
2018-05-06T02:40:32.032Z,100
2018-05-06T02:41:34.865Z,100
2018-05-06T02:42:37.885Z,100
2018-05-06T02:43:40.603Z,100
2018-05-06T02:44:43.420Z,100
2018-05-06T02:45:46.169Z,100
2018-05-06T02:46:48.621Z,100
2018-05-06T02:47:51.051Z,100
2018-05-06T02:48:53.793Z,100
2018-05-06T02:49:56.231Z,100
2018-05-06T02:50:58.681Z,100
2018-05-06T02:52:01.505Z,100
2018-05-06T02:53:04.243Z,100
2018-05-06T02:54:06.691Z,100
2018-05-06T02:55:09.122Z,99
2018-05-06T02:56:11.553Z,99
2018-05-06T02:57:13.991Z,99
2018-05-06T02:58:17.099Z,98
2018-05-06T02:59:19.536Z,98
2018-05-06T03:00:22.253Z,97
2018-05-06T03:01:24.674Z,97
2018-05-06T03:02:27.124Z,96
2018-05-06T03:03:29.945Z,96
2018-05-06T03:04:32.381Z,95
2018-05-06T03:05:34.817Z,95
2018-05-06T03:06:37.263Z,94
2018-05-06T03:07:39.691Z,93
2018-05-06T03:08:42.123Z,93
2018-05-06T03:09:44.553Z,93
2018-05-06T03:10:46.983Z,92
2018-05-06T03:11:50.014Z,92
2018-05-06T03:12:52.734Z,91
2018-05-06T03:13:55.170Z,90
2018-05-06T03:14:57.611Z,89
2018-05-06T03:16:00.349Z,90
2018-05-06T03:17:02.790Z,90
2018-05-06T03:18:05.609Z,90
2018-05-06T03:19:08.046Z,90
2018-05-06T03:20:10.468Z,89
2018-05-06T03:21:12.902Z,89
2018-05-06T03:22:15.338Z,89
2018-05-06T03:23:17.769Z,89
2018-05-06T03:24:20.566Z,89
2018-05-06T03:25:22.943Z,90
2018-05-06T03:26:25.359Z,90
2018-05-06T03:27:27.814Z,90
2018-05-06T03:28:30.533Z,90
2018-05-06T03:29:32.975Z,90
2018-05-06T03:30:35.992Z,89
2018-05-06T03:31:38.726Z,89
2018-05-06T03:32:41.449Z,90
2018-05-06T03:33:43.894Z,90
2018-05-06T03:34:46.326Z,90
2018-05-06T03:35:48.758Z,90
2018-05-06T03:36:51.190Z,90
2018-05-06T03:37:53.627Z,90
2018-05-06T03:38:56.342Z,90
2018-05-06T03:39:58.781Z,89
2018-05-06T03:41:01.218Z,89
2018-05-06T03:42:04.332Z,90
2018-05-06T03:43:06.775Z,90
2018-05-06T03:44:09.218Z,90
2018-05-06T03:45:11.651Z,90
2018-05-06T03:46:14.100Z,90
2018-05-06T03:47:16.534Z,90
2018-05-06T03:48:18.967Z,90
2018-05-06T03:49:21.404Z,90
2018-05-06T03:50:23.839Z,90
2018-05-06T03:51:26.574Z,90
2018-05-06T03:52:29.006Z,90
2018-05-06T03:53:31.441Z,90
2018-05-06T03:54:33.899Z,90
2018-05-06T03:55:36.333Z,90
2018-05-06T03:56:38.763Z,90
2018-05-06T03:57:41.195Z,90
2018-05-06T03:58:43.640Z,90
2018-05-06T03:59:46.069Z,90
2018-05-06T04:00:48.802Z,89
2018-05-06T04:01:51.511Z,89
2018-05-06T04:02:54.260Z,89
2018-05-06T04:03:56.692Z,89
2018-05-06T04:04:59.515Z,90
2018-05-06T04:06:01.963Z,89
2018-05-06T04:07:04.396Z,90
2018-05-06T04:08:06.832Z,90
2018-05-06T04:09:09.277Z,90
2018-05-06T04:10:11.698Z,91
2018-05-06T04:11:14.145Z,90
2018-05-06T04:12:16.580Z,91
2018-05-06T04:13:19.012Z,92
2018-05-06T04:14:21.462Z,94
2018-05-06T04:15:23.892Z,95
2018-05-06T04:16:26.324Z,93
2018-05-06T04:17:29.068Z,96
2018-05-06T04:18:31.801Z,94
2018-05-06T04:19:34.513Z,94
2018-05-06T04:20:36.940Z,94
2018-05-06T04:21:39.380Z,93
2018-05-06T04:22:42.100Z,93
2018-05-06T04:23:44.542Z,94
2018-05-06T04:24:46.974Z,93
2018-05-06T04:25:49.728Z,94
2018-05-06T04:26:52.194Z,94
2018-05-06T04:27:54.605Z,94
2018-05-06T04:28:57.042Z,95
2018-05-06T04:29:59.758Z,95
2018-05-06T04:31:02.194Z,95
2018-05-06T04:32:04.641Z,95
2018-05-06T04:33:07.079Z,96
2018-05-06T04:34:09.506Z,96
2018-05-06T04:35:11.943Z,95
2018-05-06T04:36:14.681Z,96
2018-05-06T04:37:17.115Z,97
2018-05-06T04:38:19.541Z,99
2018-05-06T04:39:21.979Z,97
2018-05-06T04:40:24.420Z,100
2018-05-06T04:41:26.866Z,98
2018-05-06T04:42:29.304Z,97
2018-05-06T04:43:31.732Z,97
2018-05-06T04:44:34.173Z,97
2018-05-06T04:45:36.915Z,97
2018-05-06T04:46:39.639Z,96
2018-05-06T04:47:42.067Z,96
2018-05-06T04:48:44.784Z,96
2018-05-06T04:49:47.227Z,96
2018-05-06T04:50:49.986Z,96
2018-05-06T04:51:52.432Z,96
2018-05-06T04:52:55.142Z,96
2018-05-06T04:53:57.582Z,96
2018-05-06T04:55:00.305Z,96
2018-05-06T04:56:03.042Z,97
2018-05-06T04:57:05.757Z,97
2018-05-06T04:58:08.200Z,97
2018-05-06T04:59:10.630Z,96
2018-05-06T05:00:13.086Z,96
2018-05-06T05:01:15.525Z,96
2018-05-06T05:02:17.964Z,95
2018-05-06T05:03:20.710Z,96
2018-05-06T05:04:23.143Z,96
2018-05-06T05:05:25.590Z,96
2018-05-06T05:06:28.417Z,95
2018-05-06T05:07:31.139Z,95
2018-05-06T05:08:33.581Z,95
2018-05-06T05:09:36.064Z,95
2018-05-06T05:10:38.460Z,95
2018-05-06T05:11:40.905Z,95
2018-05-06T05:12:43.344Z,96
2018-05-06T05:13:45.788Z,97
2018-05-06T05:14:48.512Z,97
2018-05-06T05:15:50.959Z,97
2018-05-06T05:16:53.391Z,97
2018-05-06T05:17:55.836Z,97
2018-05-06T05:18:58.270Z,98
2018-05-06T05:20:01.002Z,98
2018-05-06T05:21:03.740Z,98
2018-05-06T05:22:06.179Z,98
2018-05-06T05:23:08.613Z,97
2018-05-06T05:24:11.035Z,97
2018-05-06T05:25:13.478Z,97
2018-05-06T05:26:15.914Z,96
2018-05-06T05:27:18.345Z,97
2018-05-06T05:28:21.073Z,97
2018-05-06T05:29:23.511Z,96
2018-05-06T05:30:25.945Z,96
2018-05-06T05:31:28.781Z,96
2018-05-06T05:32:31.220Z,95
2018-05-06T05:33:33.658Z,94
2018-05-06T05:34:36.497Z,92
2018-05-06T05:35:39.007Z,90
2018-05-06T05:36:41.384Z,88
2018-05-06T05:37:43.817Z,88
2018-05-06T05:38:46.249Z,89
2018-05-06T05:39:48.687Z,89
2018-05-06T05:40:51.121Z,89
2018-05-06T05:41:53.838Z,90
2018-05-06T05:42:56.293Z,90
2018-05-06T05:43:59.017Z,90
2018-05-06T05:45:01.734Z,90
2018-05-06T05:46:04.170Z,91
2018-05-06T05:47:06.623Z,91
2018-05-06T05:48:09.329Z,91
2018-05-06T05:49:11.775Z,91
2018-05-06T05:50:14.510Z,91
2018-05-06T05:51:16.949Z,91
2018-05-06T05:52:19.387Z,92
2018-05-06T05:53:21.821Z,91
2018-05-06T05:54:24.256Z,90
2018-05-06T05:55:26.710Z,90
2018-05-06T05:56:29.142Z,91
2018-05-06T05:57:31.576Z,89
2018-05-06T05:58:34.020Z,89
2018-05-06T05:59:37.046Z,90
2018-05-06T06:00:39.487Z,82
2018-05-06T06:01:42.212Z,79
2018-05-06T06:02:45.038Z,80
2018-05-06T06:03:47.487Z,80
2018-05-06T06:04:49.928Z,80
2018-05-06T06:05:52.370Z,79
2018-05-06T06:06:55.083Z,80
2018-05-06T06:07:57.522Z,78
2018-05-06T06:08:59.965Z,78
2018-05-06T06:10:02.793Z,78
2018-05-06T06:11:05.619Z,76
2018-05-06T06:12:08.063Z,74
2018-05-06T06:13:10.505Z,73
2018-05-06T06:14:12.956Z,74
2018-05-06T06:15:15.406Z,72
2018-05-06T06:16:17.835Z,71
2018-05-06T06:17:20.281Z,71
2018-05-06T06:18:22.714Z,71
2018-05-06T06:19:25.157Z,70
2018-05-06T06:20:27.893Z,71
2018-05-06T06:21:30.339Z,71
2018-05-06T06:22:32.789Z,72
2018-05-06T06:23:35.220Z,72
2018-05-06T06:24:37.734Z,71
2018-05-06T06:25:40.103Z,70
2018-05-06T06:26:42.548Z,70
2018-05-06T06:27:44.999Z,70
2018-05-06T06:28:47.432Z,69
2018-05-06T06:29:49.862Z,69
2018-05-06T06:30:52.312Z,69
2018-05-06T06:31:54.741Z,70
2018-05-06T06:32:57.216Z,69
2018-05-06T06:34:00.254Z,69
2018-05-06T06:35:02.696Z,69
2018-05-06T06:36:05.136Z,69
2018-05-06T06:37:07.573Z,69
2018-05-06T06:38:10.012Z,69
2018-05-06T06:39:12.464Z,70
2018-05-06T06:40:14.894Z,70
2018-05-06T06:41:17.335Z,71
2018-05-06T06:42:19.787Z,74
2018-05-06T06:43:22.523Z,75
2018-05-06T06:44:25.258Z,78
2018-05-06T06:45:27.696Z,78
2018-05-06T06:46:30.520Z,77
2018-05-06T06:47:32.955Z,77
2018-05-06T06:48:35.397Z,78
2018-05-06T06:49:37.849Z,78
2018-05-06T06:50:40.296Z,78
2018-05-06T06:51:42.737Z,79
2018-05-06T06:52:45.181Z,80
2018-05-06T06:53:47.626Z,81
2018-05-06T06:54:50.073Z,80
2018-05-06T06:55:53.093Z,80
2018-05-06T06:56:55.527Z,81
2018-05-06T06:57:57.970Z,81
2018-05-06T06:59:00.720Z,81
2018-05-06T07:00:03.169Z,82
2018-05-06T07:01:05.597Z,80
2018-05-06T07:02:08.033Z,79
2018-05-06T07:03:10.484Z,79
2018-05-06T07:04:12.929Z,81
2018-05-06T07:05:15.758Z,80
2018-05-06T07:06:18.198Z,81
2018-05-06T07:07:20.643Z,82
2018-05-06T07:08:23.485Z,80
2018-05-06T07:09:26.638Z,80
2018-05-06T07:10:29.084Z,78
2018-05-06T07:11:31.818Z,78
2018-05-06T07:12:34.554Z,77
2018-05-06T07:13:36.999Z,76
2018-05-06T07:14:39.442Z,76
2018-05-06T07:15:41.883Z,79
2018-05-06T07:16:44.327Z,78
2018-05-06T07:17:46.767Z,76
2018-05-06T07:18:49.212Z,74
2018-05-06T07:19:51.941Z,72
2018-05-06T07:20:54.394Z,73
2018-05-06T07:21:56.850Z,74
2018-05-06T07:22:59.359Z,74
2018-05-06T07:24:02.026Z,70
2018-05-06T07:25:04.467Z,68
2018-05-06T07:26:07.191Z,69
2018-05-06T07:27:09.914Z,72
2018-05-06T07:28:12.361Z,68
2018-05-06T07:29:14.799Z,65
2018-05-06T07:30:17.587Z,65
2018-05-06T07:31:20.698Z,65
2018-05-06T07:32:23.149Z,62
2018-05-06T07:33:25.978Z,61
2018-05-06T07:34:28.410Z,60
2018-05-06T07:35:30.858Z,61
2018-05-06T07:36:33.308Z,61
2018-05-06T07:37:35.751Z,61
2018-05-06T07:38:38.205Z,61
2018-05-06T07:39:40.639Z,61
2018-05-06T07:40:43.082Z,62
2018-05-06T07:41:45.528Z,60
2018-05-06T07:42:47.970Z,60
2018-05-06T07:43:50.405Z,60
2018-05-06T07:44:53.171Z,61
2018-05-06T07:45:55.611Z,62
2018-05-06T07:46:58.383Z,60
2018-05-06T07:48:00.839Z,60
2018-05-06T07:49:03.544Z,60
2018-05-06T07:50:05.997Z,60
2018-05-06T07:51:08.443Z,60
2018-05-06T07:52:11.174Z,60
2018-05-06T07:53:13.626Z,58
2018-05-06T07:54:16.349Z,57
2018-05-06T07:55:18.782Z,56
2018-05-06T07:56:21.540Z,56
2018-05-06T07:57:24.013Z,56
2018-05-06T07:58:26.749Z,56
2018-05-06T07:59:29.779Z,56
2018-05-06T08:00:32.229Z,55
2018-05-06T08:01:34.664Z,56
2018-05-06T08:02:37.117Z,57
2018-05-06T08:03:39.838Z,60
2018-05-06T08:04:42.285Z,57
2018-05-06T08:05:44.723Z,55
2018-05-06T08:06:47.179Z,56
2018-05-06T08:07:49.625Z,56
2018-05-06T08:08:52.082Z,55
2018-05-06T08:09:54.825Z,55
2018-05-06T08:10:57.707Z,58
2018-05-06T08:12:00.108Z,55
2018-05-06T08:13:02.564Z,54
2018-05-06T08:14:05.303Z,52
2018-05-06T08:15:07.751Z,52
2018-05-06T08:16:10.193Z,53
2018-05-06T08:17:12.646Z,54
2018-05-06T08:18:15.084Z,49
2018-05-06T08:19:17.524Z,48
2018-05-06T08:20:19.992Z,49
2018-05-06T08:21:22.434Z,49
2018-05-06T08:22:24.872Z,48
2018-05-06T08:23:27.609Z,50
2018-05-06T08:24:30.046Z,52
2018-05-06T08:25:32.491Z,49
2018-05-06T08:26:35.234Z,48
2018-05-06T08:27:37.673Z,47
2018-05-06T08:28:40.408Z,48
2018-05-06T08:29:42.864Z,48
2018-05-06T08:30:45.408Z,48
2018-05-06T08:31:47.939Z,48
2018-05-06T08:32:50.299Z,47
2018-05-06T08:33:53.061Z,47
2018-05-06T08:34:55.807Z,49
2018-05-06T08:35:58.257Z,47
2018-05-06T08:37:00.692Z,47
2018-05-06T08:38:03.428Z,48
2018-05-06T08:39:06.181Z,50
2018-05-06T08:40:08.624Z,54
2018-05-06T08:41:11.069Z,51
2018-05-06T08:42:13.507Z,51
2018-05-06T08:43:15.950Z,52
2018-05-06T08:44:18.414Z,51
2018-05-06T08:45:20.860Z,54
2018-05-06T08:46:23.324Z,51
2018-05-06T08:47:25.757Z,52
2018-05-06T08:48:28.198Z,54
2018-05-06T08:49:30.642Z,53
2018-05-06T08:50:33.089Z,53
2018-05-06T08:51:35.535Z,50
2018-05-06T08:52:41.235Z,51
2018-05-06T08:53:49.780Z,55
2018-05-06T08:54:56.793Z,50
2018-05-06T08:55:59.945Z,49
2018-05-06T08:57:02.577Z,49
2018-05-06T08:58:05.455Z,48
2018-05-06T08:59:08.555Z,47
2018-05-06T09:00:11.144Z,49
2018-05-06T09:01:24.289Z,49
2018-05-06T09:02:44.483Z,49
2018-05-06T09:04:04.553Z,47
2018-05-06T09:05:23.840Z,50
2018-05-06T09:06:38.466Z,45
2018-05-06T09:07:56.507Z,44
2018-05-06T09:09:15.852Z,42
2018-05-06T09:10:33.912Z,41
2018-05-06T09:11:56.251Z,43
2018-05-06T09:13:15.073Z,42
2018-05-06T09:14:33.317Z,44
2018-05-06T09:15:51.723Z,44
2018-05-06T09:17:09.646Z,40
2018-05-06T09:18:22.892Z,41
2018-05-06T13:41:10.408Z,34
2018-05-06T13:42:12.458Z,31
2018-05-06T13:43:14.505Z,32
2018-05-06T13:44:16.540Z,30
2018-05-06T13:45:18.995Z,31
2018-05-06T13:46:21.043Z,30
2018-05-06T13:47:23.556Z,30
2018-05-06T13:48:25.845Z,29
2018-05-06T13:49:27.897Z,30
2018-05-06T13:50:31.281Z,30
2018-05-06T13:51:33.388Z,30
2018-05-06T13:52:35.528Z,31
2018-05-06T13:53:37.621Z,32
2018-05-06T13:54:39.869Z,32
2018-05-06T13:55:42.022Z,32
2018-05-06T13:56:44.104Z,31
2018-05-06T13:57:46.157Z,31
2018-05-06T13:58:48.215Z,30
2018-05-06T13:59:50.259Z,31
2018-05-06T14:00:52.698Z,30
2018-05-06T14:01:54.744Z,31
2018-05-06T14:02:56.800Z,31
2018-05-06T14:03:58.850Z,30
2018-05-06T14:05:00.905Z,32
2018-05-06T14:06:02.962Z,31
2018-05-06T14:07:05.025Z,30
2018-05-06T14:08:07.520Z,31
2018-05-06T14:09:09.903Z,33
2018-05-06T14:10:11.960Z,32
2018-05-06T14:11:14.020Z,32
2018-05-06T14:12:17.034Z,31
2018-05-06T14:13:19.096Z,31
2018-05-06T14:14:21.170Z,31
2018-05-06T14:15:23.246Z,30
2018-05-06T14:16:25.342Z,31
2018-05-06T14:17:27.611Z,31
2018-05-06T14:18:30.073Z,29
2018-05-06T14:19:32.128Z,30
2018-05-06T14:20:34.189Z,30
2018-05-06T14:21:36.711Z,30
2018-05-06T14:22:38.685Z,30
2018-05-06T14:23:40.757Z,31
2018-05-06T14:24:42.813Z,30
2018-05-06T14:25:45.274Z,30
2018-05-06T14:26:47.341Z,32
2018-05-06T14:27:49.988Z,30
2018-05-06T14:28:52.057Z,30
2018-05-06T14:29:54.419Z,30
2018-05-06T14:30:57.059Z,32
2018-05-06T14:31:59.120Z,33
2018-05-06T14:33:01.179Z,31
2018-05-06T14:34:03.256Z,33
2018-05-06T14:35:05.323Z,32
2018-05-06T14:36:07.382Z,31
2018-05-06T14:37:09.455Z,31
2018-05-06T14:38:11.812Z,32
2018-05-06T14:39:13.873Z,32
2018-05-06T14:40:16.329Z,31
2018-05-06T14:41:18.420Z,31
2018-05-06T14:42:20.486Z,32
2018-05-06T14:43:22.553Z,30
2018-05-06T14:44:24.613Z,30
2018-05-06T14:45:26.683Z,30
2018-05-06T14:46:28.750Z,29
2018-05-06T14:47:31.196Z,28
2018-05-06T14:48:33.803Z,28
2018-05-06T14:49:35.770Z,29
2018-05-06T14:50:37.827Z,29
2018-05-06T14:51:39.894Z,29
2018-05-06T14:52:42.234Z,28
2018-05-06T14:53:44.303Z,28
2018-05-06T14:54:46.365Z,29
2018-05-06T14:55:48.458Z,30
2018-05-06T14:56:50.493Z,29
2018-05-06T14:57:52.565Z,30
2018-05-06T14:58:54.629Z,31
2018-05-06T14:59:56.674Z,30
2018-05-06T15:00:58.738Z,31
2018-05-06T15:02:00.807Z,31
2018-05-06T15:03:02.876Z,30
2018-05-06T15:04:04.943Z,31
2018-05-06T15:05:07.009Z,31
2018-05-06T15:06:09.077Z,29
2018-05-06T15:07:11.434Z,31
2018-05-06T15:08:13.491Z,31
2018-05-06T15:09:15.562Z,32
2018-05-06T15:10:17.630Z,32
2018-05-06T15:11:19.702Z,31
2018-05-06T15:12:21.766Z,30
2018-05-06T15:13:23.845Z,30
2018-05-06T15:14:25.917Z,30
2018-05-06T15:15:27.986Z,30
2018-05-06T15:16:30.051Z,30
2018-05-06T15:17:32.122Z,31
2018-05-06T15:18:34.503Z,31
2018-05-06T15:19:36.629Z,31
2018-05-06T15:20:38.978Z,31
2018-05-06T15:21:41.055Z,30
2018-05-06T15:22:43.122Z,31
2018-05-06T15:23:45.187Z,32
2018-05-06T15:24:47.257Z,31
2018-05-06T15:25:49.324Z,31
2018-05-06T15:26:51.770Z,30
2018-05-06T15:27:53.834Z,31
2018-05-06T15:28:56.197Z,32
2018-05-06T15:29:58.263Z,31
2018-05-06T15:31:00.314Z,30
2018-05-06T15:32:02.685Z,31
2018-05-06T15:33:05.039Z,31
2018-05-06T15:34:07.112Z,31
2018-05-06T15:35:09.176Z,31
2018-05-06T15:36:11.252Z,31
2018-05-06T15:37:13.319Z,31
2018-05-06T15:38:15.388Z,30
2018-05-06T15:39:17.452Z,31
2018-05-06T15:40:19.503Z,31
2018-05-06T15:41:21.609Z,31
2018-05-06T15:42:24.044Z,31
2018-05-06T15:43:26.115Z,31
2018-05-06T15:44:28.457Z,31
2018-05-06T15:45:30.917Z,31
2018-05-06T15:46:32.980Z,31
2018-05-06T15:47:35.056Z,32
2018-05-06T15:48:37.128Z,32
2018-05-06T15:49:39.491Z,33
2018-05-06T15:50:41.567Z,33
2018-05-06T15:51:43.624Z,33
2018-05-06T15:52:45.685Z,32
2018-05-06T15:53:47.766Z,32
2018-05-06T15:54:49.833Z,31
2018-05-06T15:55:51.917Z,31
2018-05-06T15:56:53.976Z,31
2018-05-06T15:57:56.046Z,31
2018-05-06T15:58:58.113Z,31
2018-05-06T16:00:00.475Z,31
2018-05-06T16:01:02.545Z,32
2018-05-06T16:02:04.938Z,31
2018-05-06T16:03:07.281Z,31
2018-05-06T16:04:09.752Z,31
2018-05-06T16:05:11.818Z,31
2018-05-06T16:06:13.888Z,32
2018-05-06T16:07:15.966Z,33
2018-05-06T16:08:18.030Z,32
2018-05-06T16:09:20.100Z,33
2018-05-06T16:10:22.176Z,33
2018-05-06T16:11:24.220Z,32
2018-05-06T16:12:26.595Z,33
2018-05-06T16:13:28.670Z,31
2018-05-06T16:14:30.740Z,31
2018-05-06T16:15:32.812Z,32
2018-05-06T16:16:34.880Z,32
2018-05-06T16:17:37.011Z,32
2018-05-06T16:18:39.015Z,33
2018-05-06T16:19:41.084Z,32
2018-05-06T16:20:43.139Z,33
2018-05-06T16:21:45.211Z,33
2018-05-06T16:22:47.343Z,33
2018-05-06T16:23:49.339Z,34
2018-05-06T16:24:51.712Z,33
2018-05-06T16:25:53.770Z,34
2018-05-06T16:26:55.843Z,33
2018-05-06T16:27:58.196Z,34
2018-05-06T16:29:00.260Z,34
2018-05-06T16:30:02.916Z,34
2018-05-06T16:31:05.266Z,35
2018-05-06T16:32:07.336Z,33
2018-05-06T16:33:09.399Z,34
2018-05-06T16:34:11.480Z,34
2018-05-06T16:35:13.542Z,33
2018-05-06T16:36:15.620Z,33
2018-05-06T16:37:17.695Z,34
2018-05-06T16:38:19.754Z,34
2018-05-06T16:39:21.811Z,34
2018-05-06T16:40:23.882Z,35
2018-05-06T16:41:25.947Z,34
2018-05-06T16:42:28.015Z,34
2018-05-06T16:43:30.077Z,35
2018-05-06T16:44:32.145Z,35
2018-05-06T16:45:34.216Z,34
2018-05-06T16:46:36.273Z,35
2018-05-06T16:47:38.729Z,35
2018-05-06T16:48:40.806Z,35
2018-05-06T16:49:43.159Z,34
2018-05-06T16:50:45.234Z,34
2018-05-06T16:51:47.296Z,35
2018-05-06T16:52:49.372Z,34
2018-05-06T16:53:51.447Z,34
2018-05-06T16:54:53.510Z,35
2018-05-06T16:55:55.577Z,35
2018-05-06T16:56:58.028Z,34
2018-05-06T16:58:00.095Z,35
2018-05-06T16:59:02.158Z,34
2018-05-06T17:00:04.209Z,35
2018-05-06T17:01:06.289Z,35
2018-05-06T17:02:08.350Z,35
2018-05-06T17:03:10.812Z,34
2018-05-06T17:04:12.878Z,35
2018-05-06T17:05:14.939Z,36
2018-05-06T17:06:17.391Z,35
2018-05-06T17:07:19.457Z,35
2018-05-06T17:08:21.537Z,36
2018-05-06T17:09:23.611Z,35
2018-05-06T17:10:25.674Z,36
2018-05-06T17:11:27.736Z,36
2018-05-06T17:12:29.800Z,35
2018-05-06T17:13:31.872Z,36
2018-05-06T17:14:34.663Z,35
2018-05-06T17:15:36.753Z,35
2018-05-06T17:16:39.366Z,36
2018-05-06T17:17:41.460Z,36
2018-05-06T17:18:43.501Z,36
2018-05-06T17:19:45.593Z,36
2018-05-06T17:20:48.027Z,37
2018-05-06T17:21:50.383Z,36
2018-05-06T17:22:52.442Z,36
2018-05-06T17:23:54.511Z,36
2018-05-06T17:24:56.573Z,36
2018-05-06T17:25:58.641Z,37
2018-05-06T17:27:00.977Z,37
2018-05-06T17:28:03.051Z,37
2018-05-06T17:29:05.116Z,37
2018-05-06T17:30:07.175Z,37
2018-05-06T17:31:09.535Z,37
2018-05-06T17:32:11.593Z,36
2018-05-06T17:33:13.950Z,37
2018-05-06T17:34:16.021Z,37
2018-05-06T17:35:18.086Z,37
2018-05-06T17:36:20.146Z,37
2018-05-06T17:37:22.205Z,37
2018-05-06T17:38:24.269Z,37
2018-05-06T17:39:26.328Z,37
2018-05-06T17:40:28.676Z,37
2018-05-06T17:41:30.752Z,38
2018-05-06T17:42:32.802Z,38
2018-05-06T17:43:34.869Z,39
2018-05-06T17:44:36.925Z,38
2018-05-06T17:45:38.991Z,38
2018-05-06T17:46:41.051Z,38
2018-05-06T17:47:43.117Z,38
2018-05-06T17:48:45.188Z,38
2018-05-06T17:49:47.248Z,39
2018-05-06T17:50:49.303Z,39
2018-05-06T17:51:51.756Z,38
2018-05-06T17:52:53.819Z,39
2018-05-06T17:53:55.876Z,39
2018-05-06T17:54:57.932Z,39
2018-05-06T17:56:00.004Z,38
2018-05-06T17:57:02.065Z,39
2018-05-06T17:58:04.120Z,40
2018-05-06T17:59:06.467Z,39
2018-05-06T18:00:08.542Z,40
2018-05-06T18:01:10.600Z,41
2018-05-06T18:02:12.668Z,42
2018-05-06T18:03:14.723Z,41
2018-05-06T18:04:16.779Z,41
2018-05-06T18:05:18.841Z,41
2018-05-06T18:06:21.116Z,42
2018-05-06T18:07:23.463Z,42
2018-05-06T18:08:25.555Z,42
2018-05-06T18:09:27.641Z,41
2018-05-06T18:10:29.621Z,41
2018-05-06T18:11:31.680Z,42
2018-05-06T18:12:34.015Z,42
2018-05-06T18:13:36.070Z,43
2018-05-06T18:14:38.116Z,43
2018-05-06T18:15:40.173Z,43
2018-05-06T18:16:42.238Z,43
2018-05-06T18:17:44.289Z,43
2018-05-06T18:18:46.341Z,43
2018-05-06T18:19:48.394Z,43
2018-05-06T18:20:51.030Z,44
2018-05-06T18:21:53.083Z,44
2018-05-06T18:22:55.136Z,44
2018-05-06T18:23:57.188Z,44
2018-05-06T18:24:59.551Z,45
2018-05-06T18:26:01.594Z,44
2018-05-06T18:27:03.650Z,45
2018-05-06T18:28:05.734Z,45
2018-05-06T18:29:08.173Z,45
2018-05-06T18:30:10.222Z,45
2018-05-06T18:31:12.268Z,45
2018-05-06T18:32:14.329Z,46
2018-05-06T18:33:16.438Z,45
2018-05-06T18:34:18.477Z,46
2018-05-06T18:35:20.850Z,46
2018-05-06T18:36:23.276Z,46
2018-05-06T18:37:25.323Z,47
2018-05-06T18:38:27.370Z,47
2018-05-06T18:39:29.421Z,47
2018-05-06T18:40:31.470Z,47
2018-05-06T18:41:33.516Z,47
2018-05-06T18:42:35.561Z,48
2018-05-06T18:43:37.609Z,48
2018-05-06T18:44:39.648Z,47
2018-05-06T18:45:41.700Z,47
2018-05-06T18:46:43.780Z,48
2018-05-06T18:47:45.800Z,49
2018-05-06T18:48:47.860Z,48
2018-05-06T18:49:49.900Z,49
2018-05-06T18:50:52.237Z,48
2018-05-06T18:51:54.287Z,49
2018-05-06T18:52:56.342Z,49
2018-05-06T18:53:58.390Z,49
2018-05-06T18:55:00.445Z,50
2018-05-06T18:56:02.828Z,49
2018-05-06T18:57:04.818Z,49
2018-05-06T18:58:07.171Z,49
2018-05-06T18:59:09.245Z,49
2018-05-06T19:00:11.580Z,49
2018-05-06T19:01:13.627Z,49
2018-05-06T19:02:15.669Z,50
2018-05-06T19:03:18.018Z,49
2018-05-06T19:04:20.346Z,49
2018-05-06T19:05:22.385Z,49
2018-05-06T19:06:24.434Z,50
2018-05-06T19:07:26.876Z,50
2018-05-06T19:08:28.936Z,49
2018-05-06T19:09:30.957Z,50
2018-05-06T19:10:33.007Z,50